sensor_id;sensor_type;location;lat;lon;timestamp;pressure;altitude;pressure_sealevel;temperature;humidity
12178;BME280;6152;48.728;9.256;2022-12-18T00:01:37;98149.06;;;-9.97;100.00
12178;BME280;6152;48.728;9.256;2022-12-18T00:04:05;98154.94;;;-9.97;100.00
12178;BME280;6152;48.728;9.256;2022-12-18T00:06:33;98159.13;;;-9.97;100.00
12178;BME280;6152;48.728;9.256;2022-12-18T00:09:00;98161.03;;;-9.90;100.00
12178;BME280;6152;48.728;9.256;2022-12-18T00:11:29;98161.78;;;-9.93;100.00
12178;BME280;6152;48.728;9.256;2022-12-18T00:13:57;98170.63;;;-10.04;100.00
12178;BME280;6152;48.728;9.256;2022-12-18T00:16:25;98159.72;;;-10.03;100.00
12178;BME280;6152;48.728;9.256;2022-12-18T00:18:54;98159.63;;;-10.06;100.00
12178;BME280;6152;48.728;9.256;2022-12-18T00:21:21;98159.41;;;-10.12;100.00
12178;BME280;6152;48.728;9.256;2022-12-18T00:23:48;98164.44;;;-10.12;100.00
12178;BME280;6152;48.728;9.256;2022-12-18T00:26:23;98163.66;;;-10.11;100.00
12178;BME280;6152;48.728;9.256;2022-12-18T00:28:49;98165.31;;;-10.11;100.00
12178;BME280;6152;48.728;9.256;2022-12-18T00:31:20;98163.59;;;-10.12;100.00
12178;BME280;6152;48.728;9.256;2022-12-18T00:33:47;98156.97;;;-10.10;100.00
12178;BME280;6152;48.728;9.256;2022-12-18T00:36:19;98151.72;;;-10.16;100.00
12178;BME280;6152;48.728;9.256;2022-12-18T00:38:46;98157.63;;;-10.16;100.00
12178;BME280;6152;48.728;9.256;2022-12-18T00:41:14;98159.22;;;-10.18;100.00
12178;BME280;6152;48.728;9.256;2022-12-18T00:44:01;98167.47;;;-10.22;100.00
12178;BME280;6152;48.728;9.256;2022-12-18T00:46:27;98171.75;;;-10.19;100.00
12178;BME280;6152;48.728;9.256;2022-12-18T00:48:53;98168.94;;;-10.27;100.00
12178;BME280;6152;48.728;9.256;2022-12-18T00:51:20;98168.03;;;-10.29;100.00
12178;BME280;6152;48.728;9.256;2022-12-18T00:53:46;98175.38;;;-10.35;100.00
12178;BME280;6152;48.728;9.256;2022-12-18T00:56:12;98175.25;;;-10.38;100.00
12178;BME280;6152;48.728;9.256;2022-12-18T00:58:38;98171.09;;;-10.38;100.00
12178;BME280;6152;48.728;9.256;2022-12-18T01:01:05;98162.09;;;-10.31;100.00
12178;BME280;6152;48.728;9.256;2022-12-18T01:03:31;98173.75;;;-10.33;100.00
12178;BME280;6152;48.728;9.256;2022-12-18T01:05:58;98172.28;;;-10.28;100.00
12178;BME280;6152;48.728;9.256;2022-12-18T01:08:24;98178.28;;;-10.24;100.00
12178;BME280;6152;48.728;9.256;2022-12-18T01:10:50;98172.50;;;-10.22;100.00
12178;BME280;6152;48.728;9.256;2022-12-18T01:13:16;98165.03;;;-10.20;100.00
12178;BME280;6152;48.728;9.256;2022-12-18T01:15:52;98171.81;;;-10.18;100.00
12178;BME280;6152;48.728;9.256;2022-12-18T01:18:18;98164.44;;;-10.12;100.00
12178;BME280;6152;48.728;9.256;2022-12-18T01:20:44;98159.22;;;-10.18;100.00
12178;BME280;6152;48.728;9.256;2022-12-18T01:23:10;98168.25;;;-10.23;100.00
12178;BME280;6152;48.728;9.256;2022-12-18T01:25:36;98162.09;;;-10.31;100.00
12178;BME280;6152;48.728;9.256;2022-12-18T01:28:03;98163.56;;;-10.36;100.00
12178;BME280;6152;48.728;9.256;2022-12-18T01:30:29;98173.53;;;-10.39;100.00
12178;BME280;6152;48.728;9.256;2022-12-18T01:32:55;98185.88;;;-10.45;100.00
12178;BME280;6152;48.728;9.256;2022-12-18T01:35:21;98181.63;;;-10.46;100.00
12178;BME280;6152;48.728;9.256;2022-12-18T01:37:47;98180.75;;;-10.48;100.00
12178;BME280;6152;48.728;9.256;2022-12-18T01:40:14;98166.31;;;-10.52;100.00
12178;BME280;6152;48.728;9.256;2022-12-18T01:42:40;98171.13;;;-10.58;100.00
12178;BME280;6152;48.728;9.256;2022-12-18T01:50:24;98182.59;;;-10.65;100.00
12178;BME280;6152;48.728;9.256;2022-12-18T01:53:10;98183.31;;;-10.67;100.00
12178;BME280;6152;48.728;9.256;2022-12-18T01:55:50;98182.44;;;-10.69;100.00
12178;BME280;6152;48.728;9.256;2022-12-18T01:58:19;98184.06;;;-10.70;100.00
12178;BME280;6152;48.728;9.256;2022-12-18T02:00:46;98184.94;;;-10.69;100.00
12178;BME280;6152;48.728;9.256;2022-12-18T02:03:12;98176.72;;;-10.65;100.00
12178;BME280;6152;48.728;9.256;2022-12-18T02:05:47;98171.84;;;-10.61;100.00
12178;BME280;6152;48.728;9.256;2022-12-18T02:11:56;98159.56;;;-10.53;100.00
12178;BME280;6152;48.728;9.256;2022-12-18T02:14:38;98169.81;;;-10.49;100.00
12178;BME280;6152;48.728;9.256;2022-12-18T02:17:19;98176.72;;;-10.43;100.00
12178;BME280;6152;48.728;9.256;2022-12-18T02:22:54;98173.75;;;-10.33;100.00
12178;BME280;6152;48.728;9.256;2022-12-18T02:28:17;98182.44;;;-10.25;100.00
12178;BME280;6152;48.728;9.256;2022-12-18T02:30:48;98183.34;;;-10.23;100.00
12178;BME280;6152;48.728;9.256;2022-12-18T02:36:41;98182.44;;;-10.25;100.00
12178;BME280;6152;48.728;9.256;2022-12-18T02:39:11;98178.88;;;-10.30;100.00
12178;BME280;6152;48.728;9.256;2022-12-18T02:41:39;98192.19;;;-10.34;100.00
12178;BME280;6152;48.728;9.256;2022-12-18T02:44:10;98197.88;;;-10.38;100.00
12178;BME280;6152;48.728;9.256;2022-12-18T02:46:56;98195.25;;;-10.41;100.00
12178;BME280;6152;48.728;9.256;2022-12-18T02:49:35;98198.47;;;-10.45;100.00
12178;BME280;6152;48.728;9.256;2022-12-18T02:57:15;98203.00;;;-10.57;100.00
12178;BME280;6152;48.728;9.256;2022-12-18T03:02:37;98199.34;;;-10.65;100.00
12178;BME280;6152;48.728;9.256;2022-12-18T03:05:11;98195.78;;;-10.70;100.00
12178;BME280;6152;48.728;9.256;2022-12-18T03:07:46;98191.53;;;-10.71;100.00
12178;BME280;6152;48.728;9.256;2022-12-18T03:10:18;98190.63;;;-10.73;100.00
12178;BME280;6152;48.728;9.256;2022-12-18T03:12:52;98189.03;;;-10.71;100.00
12178;BME280;6152;48.728;9.256;2022-12-18T03:15:25;98190.75;;;-10.70;100.00
12178;BME280;6152;48.728;9.256;2022-12-18T03:17:56;98195.78;;;-10.70;100.00
12178;BME280;6152;48.728;9.256;2022-12-18T03:20:26;98197.41;;;-10.72;100.00
12178;BME280;6152;48.728;9.256;2022-12-18T03:23:04;98194.06;;;-10.71;100.00
12178;BME280;6152;48.728;9.256;2022-12-18T03:25:34;98201.72;;;-10.68;100.00
12178;BME280;6152;48.728;9.256;2022-12-18T03:28:03;98205.09;;;-10.68;100.00
12178;BME280;6152;48.728;9.256;2022-12-18T03:30:33;98211.78;;;-10.68;100.00
12178;BME280;6152;48.728;9.256;2022-12-18T03:35:42;98212.41;;;-10.74;100.00
12178;BME280;6152;48.728;9.256;2022-12-18T03:38:09;98213.94;;;-10.78;100.00
12178;BME280;6152;48.728;9.256;2022-12-18T03:40:54;98210.41;;;-10.83;100.00
12178;BME280;6152;48.728;9.256;2022-12-18T03:46:02;98213.38;;;-10.91;100.00
12178;BME280;6152;48.728;9.256;2022-12-18T03:48:45;98214.19;;;-10.92;100.00
12178;BME280;6152;48.728;9.256;2022-12-18T03:51:26;98204.56;;;-11.02;100.00
12178;BME280;6152;48.728;9.256;2022-12-18T03:54:02;98205.72;;;-11.15;100.00
12178;BME280;6152;48.728;9.256;2022-12-18T03:56:34;98212.19;;;-11.20;100.00
12178;BME280;6152;48.728;9.256;2022-12-18T03:59:03;98216.22;;;-11.23;100.00
12178;BME280;6152;48.728;9.256;2022-12-18T04:01:40;98223.72;;;-11.25;100.00
12178;BME280;6152;48.728;9.256;2022-12-18T04:04:09;98211.81;;;-11.29;100.00
12178;BME280;6152;48.728;9.256;2022-12-18T04:06:36;98219.25;;;-11.32;100.00
12178;BME280;6152;48.728;9.256;2022-12-18T04:09:04;98213.03;;;-11.40;100.00
12178;BME280;6152;48.728;9.256;2022-12-18T04:11:31;98215.41;;;-11.43;100.00
12178;BME280;6152;48.728;9.256;2022-12-18T04:13:58;98210.34;;;-11.45;100.00
12178;BME280;6152;48.728;9.256;2022-12-18T04:16:25;98208.75;;;-11.43;100.00
12178;BME280;6152;48.728;9.256;2022-12-18T04:18:53;98206.03;;;-11.47;100.00
12178;BME280;6152;48.728;9.256;2022-12-18T04:21:19;98210.81;;;-11.53;100.00
12178;BME280;6152;48.728;9.256;2022-12-18T04:23:46;98208.81;;;-11.60;100.00
12178;BME280;6152;48.728;9.256;2022-12-18T04:26:12;98212.28;;;-11.58;100.00
12178;BME280;6152;48.728;9.256;2022-12-18T04:28:38;98212.00;;;-11.64;100.00
12178;BME280;6152;48.728;9.256;2022-12-18T04:31:04;98211.22;;;-11.63;100.00
12178;BME280;6152;48.728;9.256;2022-12-18T04:33:30;98213.47;;;-11.69;100.00
12178;BME280;6152;48.728;9.256;2022-12-18T04:35:57;98213.94;;;-11.78;100.00
12178;BME280;6152;48.728;9.256;2022-12-18T04:38:23;98223.72;;;-11.84;100.00
12178;BME280;6152;48.728;9.256;2022-12-18T04:40:49;98229.34;;;-11.90;100.00
12178;BME280;6152;48.728;9.256;2022-12-18T04:43:15;98235.88;;;-11.93;100.00
12178;BME280;6152;48.728;9.256;2022-12-18T04:45:41;98234.19;;;-11.93;100.00
12178;BME280;6152;48.728;9.256;2022-12-18T04:48:07;98235.41;;;-12.04;100.00
12178;BME280;6152;48.728;9.256;2022-12-18T04:50:33;98230.16;;;-12.08;100.00
12178;BME280;6152;48.728;9.256;2022-12-18T04:52:59;98223.25;;;-12.14;100.00
12178;BME280;6152;48.728;9.256;2022-12-18T04:55:26;98222.09;;;-12.20;100.00
12178;BME280;6152;48.728;9.256;2022-12-18T04:57:52;98223.25;;;-12.32;100.00
12178;BME280;6152;48.728;9.256;2022-12-18T05:00:19;98210.50;;;-12.36;100.00
12178;BME280;6152;48.728;9.256;2022-12-18T05:02:45;98205.22;;;-12.42;100.00
12178;BME280;6152;48.728;9.256;2022-12-18T05:05:11;98191.59;;;-12.47;100.00
12178;BME280;6152;48.728;9.256;2022-12-18T05:07:37;98198.06;;;-12.52;100.00
12178;BME280;6152;48.728;9.256;2022-12-18T05:10:07;98203.81;;;-12.55;100.00
12178;BME280;6152;48.728;9.256;2022-12-18T05:12:33;98204.31;;;-12.62;100.00
12178;BME280;6152;48.728;9.256;2022-12-18T05:14:59;98202.38;;;-12.67;100.00
12178;BME280;6152;48.728;9.256;2022-12-18T05:17:25;98202.38;;;-12.67;100.00
12178;BME280;6152;48.728;9.256;2022-12-18T05:19:51;98210.84;;;-12.65;100.00
12178;BME280;6152;48.728;9.256;2022-12-18T05:22:17;98217.53;;;-12.64;100.00
12178;BME280;6152;48.728;9.256;2022-12-18T05:24:44;98213.38;;;-12.64;100.00
12178;BME280;6152;48.728;9.256;2022-12-18T05:27:10;98220.84;;;-12.65;100.00
12178;BME280;6152;48.728;9.256;2022-12-18T05:29:36;98228.28;;;-12.67;100.00
12178;BME280;6152;48.728;9.256;2022-12-18T05:32:02;98228.44;;;-12.64;100.00
12178;BME280;6152;48.728;9.256;2022-12-18T05:34:28;98234.59;;;-12.57;100.00
12178;BME280;6152;48.728;9.256;2022-12-18T05:36:54;98233.72;;;-12.58;100.00
12178;BME280;6152;48.728;9.256;2022-12-18T05:39:20;98234.44;;;-12.60;100.00
12178;BME280;6152;48.728;9.256;2022-12-18T05:41:46;98232.94;;;-12.57;100.00
12178;BME280;6152;48.728;9.256;2022-12-18T05:44:12;98225.38;;;-12.58;100.00
12178;BME280;6152;48.728;9.256;2022-12-18T05:46:41;98224.56;;;-12.57;100.00
12178;BME280;6152;48.728;9.256;2022-12-18T05:49:08;98227.28;;;-12.53;100.00
12178;BME280;6152;48.728;9.256;2022-12-18T05:51:35;98229.84;;;-12.51;100.00
12178;BME280;6152;48.728;9.256;2022-12-18T05:54:01;98224.06;;;-12.50;100.00
12178;BME280;6152;48.728;9.256;2022-12-18T05:56:27;98226.56;;;-12.50;100.00
12178;BME280;6152;48.728;9.256;2022-12-18T05:58:54;98220.41;;;-12.57;100.00
12178;BME280;6152;48.728;9.256;2022-12-18T06:01:23;98220.19;;;-12.61;100.00
12178;BME280;6152;48.728;9.256;2022-12-18T06:03:50;98215.25;;;-12.60;100.00
12178;BME280;6152;48.728;9.256;2022-12-18T06:06:24;98215.25;;;-12.60;100.00
12178;BME280;6152;48.728;9.256;2022-12-18T06:08:51;98212.66;;;-12.61;100.00
12178;BME280;6152;48.728;9.256;2022-12-18T06:11:21;98227.69;;;-12.61;100.00
12178;BME280;6152;48.728;9.256;2022-12-18T06:13:50;98222.78;;;-12.60;100.00
12178;BME280;6152;48.728;9.256;2022-12-18T06:16:17;98227.00;;;-12.59;100.00
12178;BME280;6152;48.728;9.256;2022-12-18T06:18:43;98237.91;;;-12.58;100.00
12178;BME280;6152;48.728;9.256;2022-12-18T06:21:09;98234.53;;;-12.59;100.00
12178;BME280;6152;48.728;9.256;2022-12-18T06:23:36;98236.16;;;-12.59;100.00
12178;BME280;6152;48.728;9.256;2022-12-18T06:26:10;98231.03;;;-12.62;100.00
12178;BME280;6152;48.728;9.256;2022-12-18T06:28:37;98221.19;;;-12.58;100.00
12178;BME280;6152;48.728;9.256;2022-12-18T06:31:04;98222.28;;;-12.53;100.00
12178;BME280;6152;48.728;9.256;2022-12-18T06:33:31;98229.72;;;-12.54;100.00
12178;BME280;6152;48.728;9.256;2022-12-18T06:36:17;98244.75;;;-12.54;100.00
12178;BME280;6152;48.728;9.256;2022-12-18T06:38:44;98251.47;;;-12.53;100.00
12178;BME280;6152;48.728;9.256;2022-12-18T06:41:15;98251.47;;;-12.53;100.00
12178;BME280;6152;48.728;9.256;2022-12-18T06:43:42;98253.06;;;-12.55;100.00
12178;BME280;6152;48.728;9.256;2022-12-18T06:46:08;98247.38;;;-12.51;100.00
12178;BME280;6152;48.728;9.256;2022-12-18T06:48:35;98257.41;;;-12.51;100.00
12178;BME280;6152;48.728;9.256;2022-12-18T06:51:01;98257.50;;;-12.50;100.00
12178;BME280;6152;48.728;9.256;2022-12-18T06:53:27;98245.06;;;-12.48;100.00
12178;BME280;6152;48.728;9.256;2022-12-18T06:56:00;98243.56;;;-12.45;100.00
12178;BME280;6152;48.728;9.256;2022-12-18T06:58:27;98243.56;;;-12.45;100.00
12178;BME280;6152;48.728;9.256;2022-12-18T07:00:53;98243.75;;;-12.40;100.00
12178;BME280;6152;48.728;9.256;2022-12-18T07:03:19;98252.06;;;-12.41;100.00
12178;BME280;6152;48.728;9.256;2022-12-18T07:05:45;98262.88;;;-12.42;100.00
12178;BME280;6152;48.728;9.256;2022-12-18T07:08:12;98261.94;;;-12.44;100.00
12178;BME280;6152;48.728;9.256;2022-12-18T07:10:42;98255.91;;;-12.48;100.00
12178;BME280;6152;48.728;9.256;2022-12-18T07:13:09;98265.25;;;-12.45;100.00
12178;BME280;6152;48.728;9.256;2022-12-18T07:15:35;98273.69;;;-12.43;100.00
12178;BME280;6152;48.728;9.256;2022-12-18T07:18:01;98275.41;;;-12.42;100.00
12178;BME280;6152;48.728;9.256;2022-12-18T07:20:27;98290.59;;;-12.39;100.00
12178;BME280;6152;48.728;9.256;2022-12-18T07:22:53;98285.56;;;-12.39;100.00
12178;BME280;6152;48.728;9.256;2022-12-18T07:25:19;98276.47;;;-12.37;100.00
12178;BME280;6152;48.728;9.256;2022-12-18T07:27:45;98283.44;;;-12.32;100.00
12178;BME280;6152;48.728;9.256;2022-12-18T07:30:12;98286.84;;;-12.29;100.00
12178;BME280;6152;48.728;9.256;2022-12-18T07:32:38;98285.44;;;-12.24;100.00
12178;BME280;6152;48.728;9.256;2022-12-18T07:35:04;98283.13;;;-12.20;100.00
12178;BME280;6152;48.728;9.256;2022-12-18T07:37:30;98290.00;;;-12.16;100.00
12178;BME280;6152;48.728;9.256;2022-12-18T07:39:56;98285.22;;;-12.11;100.00
12178;BME280;6152;48.728;9.256;2022-12-18T07:42:23;98291.56;;;-12.00;100.00
12178;BME280;6152;48.728;9.256;2022-12-18T07:44:59;98292.84;;;-11.91;100.00
12178;BME280;6152;48.728;9.256;2022-12-18T07:47:26;98289.94;;;-11.81;100.00
12178;BME280;6152;48.728;9.256;2022-12-18T07:49:52;98287.06;;;-11.70;100.00
12178;BME280;6152;48.728;9.256;2022-12-18T07:52:19;98299.19;;;-11.60;100.00
12178;BME280;6152;48.728;9.256;2022-12-18T07:54:45;98287.03;;;-11.51;100.00
12178;BME280;6152;48.728;9.256;2022-12-18T07:57:11;98290.09;;;-11.39;100.00
12178;BME280;6152;48.728;9.256;2022-12-18T07:59:37;98294.72;;;-11.29;100.00
12178;BME280;6152;48.728;9.256;2022-12-18T08:02:04;98307.13;;;-11.13;100.00
12178;BME280;6152;48.728;9.256;2022-12-18T08:04:30;98304.34;;;-11.00;100.00
12178;BME280;6152;48.728;9.256;2022-12-18T08:06:56;98302.56;;;-10.82;100.00
12178;BME280;6152;48.728;9.256;2022-12-18T08:09:22;98299.91;;;-10.65;100.00
12178;BME280;6152;48.728;9.256;2022-12-18T08:11:48;98295.59;;;-10.47;100.00
12178;BME280;6152;48.728;9.256;2022-12-18T08:14:14;98299.53;;;-10.33;100.00
12178;BME280;6152;48.728;9.256;2022-12-18T08:16:41;98302.56;;;-10.19;100.00
12178;BME280;6152;48.728;9.256;2022-12-18T08:19:07;98300.00;;;-9.99;100.00
12178;BME280;6152;48.728;9.256;2022-12-18T08:21:33;98307.78;;;-9.70;100.00
12178;BME280;6152;48.728;9.256;2022-12-18T08:24:00;98302.16;;;-9.41;100.00
12178;BME280;6152;48.728;9.256;2022-12-18T08:26:29;98305.41;;;-9.20;100.00
12178;BME280;6152;48.728;9.256;2022-12-18T08:28:57;98299.84;;;-9.11;100.00
12178;BME280;6152;48.728;9.256;2022-12-18T08:31:25;98300.50;;;-9.17;100.00
12178;BME280;6152;48.728;9.256;2022-12-18T08:33:52;98304.72;;;-9.16;100.00
12178;BME280;6152;48.728;9.256;2022-12-18T08:36:19;98305.56;;;-9.17;100.00
12178;BME280;6152;48.728;9.256;2022-12-18T08:38:46;98306.59;;;-9.34;100.00
12178;BME280;6152;48.728;9.256;2022-12-18T08:41:14;98300.94;;;-9.51;100.00
12178;BME280;6152;48.728;9.256;2022-12-18T08:43:41;98302.09;;;-9.43;100.00
12178;BME280;6152;48.728;9.256;2022-12-18T08:46:27;98302.75;;;-9.25;100.00
12178;BME280;6152;48.728;9.256;2022-12-18T08:48:57;98300.81;;;-9.08;100.00
12178;BME280;6152;48.728;9.256;2022-12-18T08:51:23;98302.25;;;-8.91;100.00
12178;BME280;6152;48.728;9.256;2022-12-18T08:53:49;98308.81;;;-8.71;100.00
12178;BME280;6152;48.728;9.256;2022-12-18T08:56:15;98309.69;;;-8.45;100.00
12178;BME280;6152;48.728;9.256;2022-12-18T08:58:42;98302.88;;;-8.21;100.00
12178;BME280;6152;48.728;9.256;2022-12-18T09:01:09;98304.56;;;-7.93;100.00
12178;BME280;6152;48.728;9.256;2022-12-18T09:03:36;98296.31;;;-7.59;100.00
12178;BME280;6152;48.728;9.256;2022-12-18T09:06:02;98288.91;;;-7.53;100.00
12178;BME280;6152;48.728;9.256;2022-12-18T09:08:32;98289.06;;;-7.48;100.00
12178;BME280;6152;48.728;9.256;2022-12-18T09:11:02;98285.88;;;-7.41;100.00
12178;BME280;6152;48.728;9.256;2022-12-18T09:13:28;98282.97;;;-7.25;100.00
12178;BME280;6152;48.728;9.256;2022-12-18T09:15:55;98279.34;;;-7.03;100.00
12178;BME280;6152;48.728;9.256;2022-12-18T09:18:22;98281.16;;;-6.67;100.00
12178;BME280;6152;48.728;9.256;2022-12-18T09:20:49;98279.31;;;-6.39;100.00
12178;BME280;6152;48.728;9.256;2022-12-18T09:23:19;98282.97;;;-5.91;100.00
12178;BME280;6152;48.728;9.256;2022-12-18T09:25:45;98284.75;;;-5.46;100.00
12178;BME280;6152;48.728;9.256;2022-12-18T09:28:12;98283.69;;;-5.16;100.00
12178;BME280;6152;48.728;9.256;2022-12-18T09:30:41;98274.28;;;-4.76;100.00
12178;BME280;6152;48.728;9.256;2022-12-18T09:33:07;98273.19;;;-4.41;100.00
12178;BME280;6152;48.728;9.256;2022-12-18T09:35:36;98274.44;;;-4.16;100.00
12178;BME280;6152;48.728;9.256;2022-12-18T09:38:03;98267.31;;;-4.38;100.00
12178;BME280;6152;48.728;9.256;2022-12-18T09:40:33;98271.91;;;-4.16;100.00
12178;BME280;6152;48.728;9.256;2022-12-18T09:43:03;98276.81;;;-3.73;100.00
12178;BME280;6152;48.728;9.256;2022-12-18T09:45:34;98276.34;;;-3.43;100.00
12178;BME280;6152;48.728;9.256;2022-12-18T09:48:05;98270.47;;;-3.37;100.00
12178;BME280;6152;48.728;9.256;2022-12-18T09:50:38;98272.06;;;-3.47;100.00
12178;BME280;6152;48.728;9.256;2022-12-18T09:53:12;98262.06;;;-3.33;100.00
12178;BME280;6152;48.728;9.256;2022-12-18T09:55:43;98257.59;;;-2.76;100.00
12178;BME280;6152;48.728;9.256;2022-12-18T09:58:16;98254.22;;;-2.75;100.00
12178;BME280;6152;48.728;9.256;2022-12-18T10:00:43;98256.25;;;-2.37;100.00
12178;BME280;6152;48.728;9.256;2022-12-18T10:03:11;98259.66;;;-2.38;97.37
12178;BME280;6152;48.728;9.256;2022-12-18T10:14:40;98251.34;;;2.66;74.27
12178;BME280;6152;48.728;9.256;2022-12-18T10:17:35;98245.13;;;4.06;66.53
12178;BME280;6152;48.728;9.256;2022-12-18T10:20:17;98238.88;;;5.09;60.63
12178;BME280;6152;48.728;9.256;2022-12-18T10:28:17;98243.19;;;6.86;44.43
12178;BME280;6152;48.728;9.256;2022-12-18T10:30:44;98241.69;;;7.08;45.50
12178;BME280;6152;48.728;9.256;2022-12-18T10:33:21;98242.50;;;7.67;43.56
12178;BME280;6152;48.728;9.256;2022-12-18T10:35:53;98226.56;;;8.33;43.90
12178;BME280;6152;48.728;9.256;2022-12-18T10:38:26;98220.03;;;8.71;43.19
12178;BME280;6152;48.728;9.256;2022-12-18T10:41:04;98220.56;;;8.81;42.19
12178;BME280;6152;48.728;9.256;2022-12-18T10:43:31;98222.38;;;9.02;41.87
12178;BME280;6152;48.728;9.256;2022-12-18T10:48:50;98237.41;;;7.64;40.11
12178;BME280;6152;48.728;9.256;2022-12-18T10:51:33;98230.78;;;6.97;41.57
12178;BME280;6152;48.728;9.256;2022-12-18T10:56:30;98237.88;;;6.59;43.32
12178;BME280;6152;48.728;9.256;2022-12-18T10:59:00;98237.25;;;6.51;44.15
12178;BME280;6152;48.728;9.256;2022-12-18T11:01:27;98237.31;;;6.15;44.81
12178;BME280;6152;48.728;9.256;2022-12-18T11:06:22;98232.41;;;6.38;45.25
12178;BME280;6152;48.728;9.256;2022-12-18T11:09:21;98230.16;;;6.89;45.45
12178;BME280;6152;48.728;9.256;2022-12-18T11:11:53;98230.22;;;7.17;44.54
12178;BME280;6152;48.728;9.256;2022-12-18T11:14:24;98223.13;;;7.23;44.42
12178;BME280;6152;48.728;9.256;2022-12-18T11:16:52;98215.28;;;7.82;43.30
12178;BME280;6152;48.728;9.256;2022-12-18T11:19:27;98218.50;;;6.42;42.66
12178;BME280;6152;48.728;9.256;2022-12-18T11:21:54;98208.31;;;6.99;42.90
12178;BME280;6152;48.728;9.256;2022-12-18T11:24:33;98195.81;;;8.21;41.92
12178;BME280;6152;48.728;9.256;2022-12-18T11:27:03;98191.19;;;9.25;40.05
12178;BME280;6152;48.728;9.256;2022-12-18T11:29:38;98190.81;;;10.82;38.25
12178;BME280;6152;48.728;9.256;2022-12-18T11:32:31;98184.66;;;12.29;35.48
12178;BME280;6152;48.728;9.256;2022-12-18T11:37:38;98167.59;;;13.53;34.76
12178;BME280;6152;48.728;9.256;2022-12-18T11:40:13;98167.78;;;14.55;32.99
12178;BME280;6152;48.728;9.256;2022-12-18T11:42:54;98172.66;;;13.56;31.07
12178;BME280;6152;48.728;9.256;2022-12-18T11:45:29;98160.69;;;13.37;32.62
12178;BME280;6152;48.728;9.256;2022-12-18T11:48:26;98156.47;;;14.25;32.33
12178;BME280;6152;48.728;9.256;2022-12-18T11:50:56;98158.31;;;13.32;31.27
12178;BME280;6152;48.728;9.256;2022-12-18T11:53:25;98161.44;;;13.23;31.39
12178;BME280;6152;48.728;9.256;2022-12-18T11:56:02;98157.31;;;13.50;31.33
12178;BME280;6152;48.728;9.256;2022-12-18T11:59:20;98158.44;;;13.92;32.34
12178;BME280;6152;48.728;9.256;2022-12-18T12:02:00;98154.06;;;13.77;31.74
12178;BME280;6152;48.728;9.256;2022-12-18T12:04:58;98149.97;;;13.87;31.61
12178;BME280;6152;48.728;9.256;2022-12-18T12:07:56;98132.84;;;13.51;31.90
12178;BME280;6152;48.728;9.256;2022-12-18T12:10:43;98134.94;;;13.29;32.05
12178;BME280;6152;48.728;9.256;2022-12-18T12:16:24;98125.19;;;11.65;33.57
12178;BME280;6152;48.728;9.256;2022-12-18T12:18:56;98131.91;;;11.17;34.94
12178;BME280;6152;48.728;9.256;2022-12-18T12:24:32;98129.59;;;8.84;38.01
12178;BME280;6152;48.728;9.256;2022-12-18T12:29:32;98122.75;;;8.35;40.36
12178;BME280;6152;48.728;9.256;2022-12-18T12:40:31;98125.44;;;7.00;42.13
12178;BME280;6152;48.728;9.256;2022-12-18T12:43:10;98130.00;;;6.63;43.81
12178;BME280;6152;48.728;9.256;2022-12-18T12:53:48;98134.25;;;3.65;51.36
12178;BME280;6152;48.728;9.256;2022-12-18T12:56:17;98132.59;;;3.61;52.09
12178;BME280;6152;48.728;9.256;2022-12-18T12:58:59;98134.75;;;3.85;53.06
12178;BME280;6152;48.728;9.256;2022-12-18T13:04:22;98143.09;;;3.99;54.62
12178;BME280;6152;48.728;9.256;2022-12-18T13:07:01;98148.97;;;4.04;55.31
12178;BME280;6152;48.728;9.256;2022-12-18T13:09:31;98146.47;;;4.01;54.64
12178;BME280;6152;48.728;9.256;2022-12-18T13:14:52;98144.72;;;4.03;57.81
12178;BME280;6152;48.728;9.256;2022-12-18T13:20:11;98159.47;;;3.95;58.12
12178;BME280;6152;48.728;9.256;2022-12-18T13:22:40;98163.38;;;3.67;58.52
12178;BME280;6152;48.728;9.256;2022-12-18T13:25:36;98158.00;;;3.27;60.69
12178;BME280;6152;48.728;9.256;2022-12-18T13:28:48;98143.94;;;2.91;63.24
12178;BME280;6152;48.728;9.256;2022-12-18T13:30:56;98147.72;;;2.66;64.17
12178;BME280;6152;48.728;9.256;2022-12-18T13:38:35;98150.75;;;1.36;75.93
12178;BME280;6152;48.728;9.256;2022-12-18T13:43:43;98142.56;;;0.86;85.37
12178;BME280;6152;48.728;9.256;2022-12-18T13:52:22;98140.22;;;0.39;92.13
12178;BME280;6152;48.728;9.256;2022-12-18T13:54:55;98137.78;;;0.12;95.79
12178;BME280;6152;48.728;9.256;2022-12-18T13:59:51;98146.41;;;-0.24;99.14
12178;BME280;6152;48.728;9.256;2022-12-18T14:02:22;98146.41;;;-0.45;100.00
12178;BME280;6152;48.728;9.256;2022-12-18T14:04:50;98140.47;;;-0.70;100.00
12178;BME280;6152;48.728;9.256;2022-12-18T14:07:27;98146.41;;;-0.94;100.00
12178;BME280;6152;48.728;9.256;2022-12-18T14:09:55;98141.25;;;-1.06;100.00
12178;BME280;6152;48.728;9.256;2022-12-18T14:12:28;98148.09;;;-1.14;100.00
12178;BME280;6152;48.728;9.256;2022-12-18T14:18:19;98147.97;;;-1.47;100.00
12178;BME280;6152;48.728;9.256;2022-12-18T14:20:52;98145.41;;;-1.50;100.00
12178;BME280;6152;48.728;9.256;2022-12-18T14:23:31;98153.06;;;-1.57;100.00
12178;BME280;6152;48.728;9.256;2022-12-18T14:25:57;98157.22;;;-1.77;100.00
12178;BME280;6152;48.728;9.256;2022-12-18T14:28:25;98154.66;;;-1.81;100.00
12178;BME280;6152;48.728;9.256;2022-12-18T14:30:52;98152.06;;;-1.93;100.00
12178;BME280;6152;48.728;9.256;2022-12-18T14:33:20;98153.72;;;-2.00;100.00
12178;BME280;6152;48.728;9.256;2022-12-18T14:36:05;98158.72;;;-2.12;100.00
12178;BME280;6152;48.728;9.256;2022-12-18T14:38:36;98167.19;;;-2.21;100.00
12178;BME280;6152;48.728;9.256;2022-12-18T14:41:14;98168.00;;;-2.26;100.00
12178;BME280;6152;48.728;9.256;2022-12-18T14:43:42;98163.66;;;-2.36;100.00
12178;BME280;6152;48.728;9.256;2022-12-18T14:46:28;98164.41;;;-2.52;100.00
12178;BME280;6152;48.728;9.256;2022-12-18T14:48:56;98164.31;;;-2.62;100.00
12178;BME280;6152;48.728;9.256;2022-12-18T14:51:25;98158.28;;;-2.74;100.00
12178;BME280;6152;48.728;9.256;2022-12-18T14:53:59;98161.59;;;-2.84;100.00
12178;BME280;6152;48.728;9.256;2022-12-18T14:56:31;98172.53;;;-2.93;100.00
12178;BME280;6152;48.728;9.256;2022-12-18T14:59:06;98174.97;;;-3.07;100.00
12178;BME280;6152;48.728;9.256;2022-12-18T15:01:44;98172.28;;;-3.20;100.00
12178;BME280;6152;48.728;9.256;2022-12-18T15:04:34;98164.53;;;-3.31;100.00